sensor_id;sensor_type;location;lat;lon;timestamp;pressure;altitude;pressure_sealevel;temperature;humidity
50349;BME280;36250;48.740;22.174;2022-10-30T00:00:11;101072.59;;;11.62;100.00
50349;BME280;36250;48.740;22.174;2022-10-30T00:02:37;101064.63;;;11.62;100.00
50349;BME280;36250;48.740;22.174;2022-10-30T00:05:02;101073.44;;;11.62;100.00
50349;BME280;36250;48.740;22.174;2022-10-30T00:07:28;101067.66;;;11.58;100.00
50349;BME280;36250;48.740;22.174;2022-10-30T00:09:53;101071.31;;;11.57;100.00
50349;BME280;36250;48.740;22.174;2022-10-30T00:12:18;101064.00;;;11.59;100.00
50349;BME280;36250;48.740;22.174;2022-10-30T00:14:44;101070.63;;;11.64;100.00
50349;BME280;36250;48.740;22.174;2022-10-30T00:17:09;101068.97;;;11.63;100.00
50349;BME280;36250;48.740;22.174;2022-10-30T00:19:34;101069.94;;;11.62;100.00
50349;BME280;36250;48.740;22.174;2022-10-30T00:21:59;101070.63;;;11.64;100.00
50349;BME280;36250;48.740;22.174;2022-10-30T00:24:27;101073.28;;;11.64;100.00
50349;BME280;36250;48.740;22.174;2022-10-30T00:26:52;101081.25;;;11.64;100.00
50349;BME280;36250;48.740;22.174;2022-10-30T00:29:18;101070.78;;;11.62;100.00
50349;BME280;36250;48.740;22.174;2022-10-30T00:31:43;101073.09;;;11.65;100.00
50349;BME280;36250;48.740;22.174;2022-10-30T00:34:09;101073.72;;;11.67;100.00
50349;BME280;36250;48.740;22.174;2022-10-30T00:36:34;101070.06;;;11.68;100.00
50349;BME280;36250;48.740;22.174;2022-10-30T00:38:59;101067.41;;;11.68;100.00
50349;BME280;36250;48.740;22.174;2022-10-30T00:41:25;101060.66;;;11.66;100.00
50349;BME280;36250;48.740;22.174;2022-10-30T00:43:51;101051.03;;;11.65;100.00
50349;BME280;36250;48.740;22.174;2022-10-30T00:46:36;101057.16;;;11.65;100.00
50349;BME280;36250;48.740;22.174;2022-10-30T00:49:12;101053.69;;;11.65;100.00
50349;BME280;36250;48.740;22.174;2022-10-30T00:51:43;101047.56;;;11.64;100.00
50349;BME280;36250;48.740;22.174;2022-10-30T00:54:10;101050.56;;;11.61;100.00
50349;BME280;36250;48.740;22.174;2022-10-30T00:56:36;101045.91;;;11.63;100.00
50349;BME280;36250;48.740;22.174;2022-10-30T00:59:06;101043.25;;;11.63;100.00
50349;BME280;36250;48.740;22.174;2022-10-30T01:01:37;101037.94;;;11.63;100.00
50349;BME280;36250;48.740;22.174;2022-10-30T01:04:05;101030.97;;;11.62;100.00
50349;BME280;36250;48.740;22.174;2022-10-30T01:06:36;101021.22;;;11.63;100.00
50349;BME280;36250;48.740;22.174;2022-10-30T01:09:03;101011.41;;;11.63;100.00
50349;BME280;36250;48.740;22.174;2022-10-30T01:11:29;101016.53;;;11.65;100.00
50349;BME280;36250;48.740;22.174;2022-10-30T01:13:57;101011.56;;;11.62;100.00
50349;BME280;36250;48.740;22.174;2022-10-30T01:24:27;101020.38;;;11.62;100.00
50349;BME280;36250;48.740;22.174;2022-10-30T01:29:48;101015.91;;;11.63;100.00
50349;BME280;36250;48.740;22.174;2022-10-30T01:35:19;101023.19;;;11.60;100.00
50349;BME280;36250;48.740;22.174;2022-10-30T01:38:02;101027.69;;;11.60;100.00
50349;BME280;36250;48.740;22.174;2022-10-30T01:40:31;101021.53;;;11.59;100.00
50349;BME280;36250;48.740;22.174;2022-10-30T01:42:57;101016.22;;;11.59;100.00
50349;BME280;36250;48.740;22.174;2022-10-30T01:51:02;101022.53;;;11.58;100.00
50349;BME280;36250;48.740;22.174;2022-10-30T01:56:22;101016.13;;;11.53;100.00
50349;BME280;36250;48.740;22.174;2022-10-30T02:01:56;101017.59;;;11.55;100.00
50349;BME280;36250;48.740;22.174;2022-10-30T02:04:23;101002.50;;;11.56;100.00
50349;BME280;36250;48.740;22.174;2022-10-30T02:06:49;100989.03;;;11.57;100.00
50349;BME280;36250;48.740;22.174;2022-10-30T02:09:16;100990.06;;;11.56;100.00
50349;BME280;36250;48.740;22.174;2022-10-30T02:11:41;100991.69;;;11.57;100.00
50349;BME280;36250;48.740;22.174;2022-10-30T02:14:08;100999.66;;;11.57;100.00
50349;BME280;36250;48.740;22.174;2022-10-30T02:16:38;101010.81;;;11.53;100.00
50349;BME280;36250;48.740;22.174;2022-10-30T02:19:06;101012.00;;;11.50;100.00
50349;BME280;36250;48.740;22.174;2022-10-30T02:21:32;101008.34;;;11.51;100.00
50349;BME280;36250;48.740;22.174;2022-10-30T02:23:57;101013.63;;;11.51;100.00
50349;BME280;36250;48.740;22.174;2022-10-30T02:26:23;101012.19;;;11.49;100.00
50349;BME280;36250;48.740;22.174;2022-10-30T02:28:48;101018.78;;;11.53;100.00
50349;BME280;36250;48.740;22.174;2022-10-30T02:31:13;101017.78;;;11.54;100.00
50349;BME280;36250;48.740;22.174;2022-10-30T02:33:43;101027.56;;;11.53;100.00
50349;BME280;36250;48.740;22.174;2022-10-30T02:36:08;101019.78;;;11.52;100.00
50349;BME280;36250;48.740;22.174;2022-10-30T02:38:34;101018.94;;;11.51;100.00
50349;BME280;36250;48.740;22.174;2022-10-30T02:40:59;101014.47;;;11.52;100.00
50349;BME280;36250;48.740;22.174;2022-10-30T02:43:24;101017.13;;;11.52;100.00
50349;BME280;36250;48.740;22.174;2022-10-30T02:45:51;101019.59;;;11.53;100.00
50349;BME280;36250;48.740;22.174;2022-10-30T02:48:16;101030.84;;;11.55;100.00
50349;BME280;36250;48.740;22.174;2022-10-30T02:50:41;101038.16;;;11.53;100.00
50349;BME280;36250;48.740;22.174;2022-10-30T02:53:07;101038.16;;;11.53;100.00
50349;BME280;36250;48.740;22.174;2022-10-30T02:55:32;101042.66;;;11.53;100.00
50349;BME280;36250;48.740;22.174;2022-10-30T02:57:57;101025.91;;;11.52;100.00
50349;BME280;36250;48.740;22.174;2022-10-30T03:00:23;101032.22;;;11.51;100.00
50349;BME280;36250;48.740;22.174;2022-10-30T03:02:53;101024.25;;;11.51;100.00
50349;BME280;36250;48.740;22.174;2022-10-30T03:05:19;101020.44;;;11.54;100.00
50349;BME280;36250;48.740;22.174;2022-10-30T03:07:44;101020.44;;;11.54;100.00
50349;BME280;36250;48.740;22.174;2022-10-30T03:10:12;101013.13;;;11.56;100.00
50349;BME280;36250;48.740;22.174;2022-10-30T03:12:37;101022.72;;;11.57;100.00
50349;BME280;36250;48.740;22.174;2022-10-30T03:15:03;101024.38;;;11.58;100.00
50349;BME280;36250;48.740;22.174;2022-10-30T03:17:29;101028.03;;;11.57;100.00
50349;BME280;36250;48.740;22.174;2022-10-30T03:19:54;101022.91;;;11.55;100.00
50349;BME280;36250;48.740;22.174;2022-10-30T03:22:19;101025.56;;;11.55;100.00
50349;BME280;36250;48.740;22.174;2022-10-30T03:24:45;101025.38;;;11.57;100.00
50349;BME280;36250;48.740;22.174;2022-10-30T03:27:10;101015.78;;;11.56;100.00
50349;BME280;36250;48.740;22.174;2022-10-30T03:29:35;101028.84;;;11.57;100.00
50349;BME280;36250;48.740;22.174;2022-10-30T03:32:00;101025.03;;;11.60;100.00
50349;BME280;36250;48.740;22.174;2022-10-30T03:34:26;101020.53;;;11.60;100.00
50349;BME280;36250;48.740;22.174;2022-10-30T03:36:51;101032.16;;;11.59;100.00
50349;BME280;36250;48.740;22.174;2022-10-30T03:39:16;101032.78;;;11.62;100.00
50349;BME280;36250;48.740;22.174;2022-10-30T03:41:42;101024.03;;;11.61;100.00
50349;BME280;36250;48.740;22.174;2022-10-30T03:44:07;101018.59;;;11.54;100.00
50349;BME280;36250;48.740;22.174;2022-10-30T03:46:33;101016.94;;;11.53;100.00
50349;BME280;36250;48.740;22.174;2022-10-30T03:49:00;101011.28;;;11.56;100.00
50349;BME280;36250;48.740;22.174;2022-10-30T03:51:25;101009.28;;;11.58;100.00
50349;BME280;36250;48.740;22.174;2022-10-30T03:53:50;100998.66;;;11.58;100.00
50349;BME280;36250;48.740;22.174;2022-10-30T03:56:16;101001.97;;;11.60;100.00
50349;BME280;36250;48.740;22.174;2022-10-30T03:58:41;100995.84;;;11.60;100.00
50349;BME280;36250;48.740;22.174;2022-10-30T04:01:09;100988.41;;;11.55;100.00
50349;BME280;36250;48.740;22.174;2022-10-30T04:03:34;100973.50;;;11.54;100.00
50349;BME280;36250;48.740;22.174;2022-10-30T04:06:00;100964.72;;;11.54;100.00
50349;BME280;36250;48.740;22.174;2022-10-30T04:08:25;100963.72;;;11.55;100.00
50349;BME280;36250;48.740;22.174;2022-10-30T04:10:51;100987.75;;;11.53;100.00
50349;BME280;36250;48.740;22.174;2022-10-30T04:13:16;100995.25;;;11.50;100.00
50349;BME280;36250;48.740;22.174;2022-10-30T04:15:43;100984.38;;;11.44;100.00
50349;BME280;36250;48.740;22.174;2022-10-30T04:18:10;100988.66;;;11.45;100.00
50349;BME280;36250;48.740;22.174;2022-10-30T04:20:36;100985.81;;;11.47;100.00
50349;BME280;36250;48.740;22.174;2022-10-30T04:23:03;100985.81;;;11.47;100.00
50349;BME280;36250;48.740;22.174;2022-10-30T04:25:29;101000.56;;;11.50;100.00
50349;BME280;36250;48.740;22.174;2022-10-30T04:27:55;101026.44;;;11.48;100.00
50349;BME280;36250;48.740;22.174;2022-10-30T04:30:21;100994.66;;;11.39;100.00
50349;BME280;36250;48.740;22.174;2022-10-30T04:32:51;100980.09;;;11.35;100.00
50349;BME280;36250;48.740;22.174;2022-10-30T04:35:18;100994.00;;;11.37;100.00
50349;BME280;36250;48.740;22.174;2022-10-30T04:38:09;101015.41;;;11.36;100.00
50349;BME280;36250;48.740;22.174;2022-10-30T04:40:37;101008.63;;;11.33;100.00
50349;BME280;36250;48.740;22.174;2022-10-30T04:43:04;101017.13;;;11.28;100.00
50349;BME280;36250;48.740;22.174;2022-10-30T04:45:29;100994.91;;;11.29;100.00
50349;BME280;36250;48.740;22.174;2022-10-30T04:48:03;100975.34;;;11.30;100.00
50349;BME280;36250;48.740;22.174;2022-10-30T04:50:30;100963.38;;;11.35;100.00
50349;BME280;36250;48.740;22.174;2022-10-30T04:53:03;100963.00;;;11.38;100.00
50349;BME280;36250;48.740;22.174;2022-10-30T04:55:30;100960.81;;;11.41;100.00
50349;BME280;36250;48.740;22.174;2022-10-30T04:57:59;100959.00;;;11.42;100.00
50349;BME280;36250;48.740;22.174;2022-10-30T05:00:25;100957.34;;;11.41;100.00
50349;BME280;36250;48.740;22.174;2022-10-30T05:02:51;100963.31;;;11.43;100.00
50349;BME280;36250;48.740;22.174;2022-10-30T05:05:16;100955.19;;;11.44;100.00
50349;BME280;36250;48.740;22.174;2022-10-30T05:07:42;100970.91;;;11.46;100.00
50349;BME280;36250;48.740;22.174;2022-10-30T05:10:11;100963.47;;;11.41;100.00
50349;BME280;36250;48.740;22.174;2022-10-30T05:12:40;100964.66;;;11.39;100.00
50349;BME280;36250;48.740;22.174;2022-10-30T05:15:06;100965.03;;;11.36;100.00
50349;BME280;36250;48.740;22.174;2022-10-30T05:17:31;100961.72;;;11.34;100.00
50349;BME280;36250;48.740;22.174;2022-10-30T05:19:56;100949.09;;;11.36;100.00
50349;BME280;36250;48.740;22.174;2022-10-30T05:22:21;100948.56;;;11.40;100.00
50349;BME280;36250;48.740;22.174;2022-10-30T05:24:47;100945.56;;;11.43;100.00
50349;BME280;36250;48.740;22.174;2022-10-30T05:27:12;100947.03;;;11.46;100.00
50349;BME280;36250;48.740;22.174;2022-10-30T05:29:37;100969.91;;;11.47;100.00
50349;BME280;36250;48.740;22.174;2022-10-30T05:32:03;100995.63;;;11.47;100.00
50349;BME280;36250;48.740;22.174;2022-10-30T05:34:28;101006.91;;;11.40;100.00
50349;BME280;36250;48.740;22.174;2022-10-30T05:36:54;101010.91;;;11.36;100.00
50349;BME280;36250;48.740;22.174;2022-10-30T05:39:19;101008.47;;;11.35;100.00
50349;BME280;36250;48.740;22.174;2022-10-30T05:41:44;101011.91;;;11.35;100.00
50349;BME280;36250;48.740;22.174;2022-10-30T05:44:09;101014.41;;;11.37;100.00
50349;BME280;36250;48.740;22.174;2022-10-30T05:46:35;101014.22;;;11.38;100.00
50349;BME280;36250;48.740;22.174;2022-10-30T05:49:00;101013.88;;;11.41;100.00
50349;BME280;36250;48.740;22.174;2022-10-30T05:51:25;101016.19;;;11.44;100.00
50349;BME280;36250;48.740;22.174;2022-10-30T05:53:51;101010.69;;;11.46;100.00
50349;BME280;36250;48.740;22.174;2022-10-30T05:56:16;101004.69;;;11.52;100.00
50349;BME280;36250;48.740;22.174;2022-10-30T05:58:41;101003.31;;;11.56;100.00
50349;BME280;36250;48.740;22.174;2022-10-30T06:01:07;100999.50;;;11.59;100.00
50349;BME280;36250;48.740;22.174;2022-10-30T06:03:32;100998.13;;;11.63;100.00
50349;BME280;36250;48.740;22.174;2022-10-30T06:05:58;100998.78;;;11.65;100.00
50349;BME280;36250;48.740;22.174;2022-10-30T06:08:23;100998.63;;;11.67;100.00
50349;BME280;36250;48.740;22.174;2022-10-30T06:10:48;100996.41;;;11.70;100.00
50349;BME280;36250;48.740;22.174;2022-10-30T06:13:14;100999.56;;;11.74;100.00
50349;BME280;36250;48.740;22.174;2022-10-30T06:15:39;100998.53;;;11.75;100.00
50349;BME280;36250;48.740;22.174;2022-10-30T06:18:04;101001.38;;;11.73;100.00
50349;BME280;36250;48.740;22.174;2022-10-30T06:20:30;101010.03;;;11.67;100.00
50349;BME280;36250;48.740;22.174;2022-10-30T06:23:04;101009.75;;;11.62;100.00
50349;BME280;36250;48.740;22.174;2022-10-30T06:25:32;100999.50;;;11.59;100.00
50349;BME280;36250;48.740;22.174;2022-10-30T06:27:58;101002.44;;;11.64;100.00
50349;BME280;36250;48.740;22.174;2022-10-30T06:30:24;101011.75;;;11.60;100.00
50349;BME280;36250;48.740;22.174;2022-10-30T06:32:55;101012.13;;;11.57;100.00
50349;BME280;36250;48.740;22.174;2022-10-30T06:35:20;101014.56;;;11.58;100.00
50349;BME280;36250;48.740;22.174;2022-10-30T06:37:46;101017.88;;;11.60;100.00
50349;BME280;36250;48.740;22.174;2022-10-30T06:40:13;101025.19;;;11.58;100.00
50349;BME280;36250;48.740;22.174;2022-10-30T06:42:46;101021.38;;;11.61;100.00
50349;BME280;36250;48.740;22.174;2022-10-30T06:45:14;101016.72;;;11.63;100.00
50349;BME280;36250;48.740;22.174;2022-10-30T06:47:40;101026.84;;;11.59;100.00
50349;BME280;36250;48.740;22.174;2022-10-30T06:50:08;101025.84;;;11.60;100.00
50349;BME280;36250;48.740;22.174;2022-10-30T06:52:34;101019.88;;;11.58;100.00
50349;BME280;36250;48.740;22.174;2022-10-30T06:54:59;101017.88;;;11.60;100.00
50349;BME280;36250;48.740;22.174;2022-10-30T06:57:25;101015.91;;;11.63;100.00
50349;BME280;36250;48.740;22.174;2022-10-30T06:59:50;101018.00;;;11.67;100.00
50349;BME280;36250;48.740;22.174;2022-10-30T07:02:15;101011.34;;;11.71;100.00
50349;BME280;36250;48.740;22.174;2022-10-30T07:04:41;101018.06;;;11.82;100.00
50349;BME280;36250;48.740;22.174;2022-10-30T07:07:06;101020.00;;;11.88;100.00
50349;BME280;36250;48.740;22.174;2022-10-30T07:09:32;101005.34;;;11.93;100.00
50349;BME280;36250;48.740;22.174;2022-10-30T07:11:57;100999.59;;;11.89;100.00
50349;BME280;36250;48.740;22.174;2022-10-30T07:14:23;101007.34;;;11.91;100.00
50349;BME280;36250;48.740;22.174;2022-10-30T07:16:48;100996.66;;;11.99;100.00
50349;BME280;36250;48.740;22.174;2022-10-30T07:19:13;101000.81;;;12.01;100.00
50349;BME280;36250;48.740;22.174;2022-10-30T07:21:39;100997.44;;;12.08;100.00
50349;BME280;36250;48.740;22.174;2022-10-30T07:24:04;100997.00;;;12.04;100.00
50349;BME280;36250;48.740;22.174;2022-10-30T07:26:30;100998.16;;;12.01;100.00
50349;BME280;36250;48.740;22.174;2022-10-30T07:28:55;100991.22;;;12.00;100.00
50349;BME280;36250;48.740;22.174;2022-10-30T07:31:20;101000.00;;;12.01;100.00
50349;BME280;36250;48.740;22.174;2022-10-30T07:33:46;100997.00;;;12.04;100.00
50349;BME280;36250;48.740;22.174;2022-10-30T07:36:11;101000.56;;;12.11;100.00
50349;BME280;36250;48.740;22.174;2022-10-30T07:38:37;101001.22;;;12.13;100.00
50349;BME280;36250;48.740;22.174;2022-10-30T07:41:02;101009.75;;;12.24;100.00
50349;BME280;36250;48.740;22.174;2022-10-30T07:43:27;100998.09;;;12.25;100.00
50349;BME280;36250;48.740;22.174;2022-10-30T07:45:53;101006.72;;;12.27;100.00
50349;BME280;36250;48.740;22.174;2022-10-30T07:48:18;101020.28;;;12.32;100.00
50349;BME280;36250;48.740;22.174;2022-10-30T07:50:43;101018.81;;;12.29;100.00
50349;BME280;36250;48.740;22.174;2022-10-30T07:53:09;101016.44;;;12.35;100.00
50349;BME280;36250;48.740;22.174;2022-10-30T07:55:34;101015.69;;;12.41;100.00
50349;BME280;36250;48.740;22.174;2022-10-30T07:57:59;101019.47;;;12.46;100.00
50349;BME280;36250;48.740;22.174;2022-10-30T08:00:25;101013.78;;;12.50;100.00
50349;BME280;36250;48.740;22.174;2022-10-30T08:02:51;101010.41;;;12.56;100.00
50349;BME280;36250;48.740;22.174;2022-10-30T08:05:19;101014.13;;;12.61;100.00
50349;BME280;36250;48.740;22.174;2022-10-30T08:07:45;101015.59;;;12.64;100.00
50349;BME280;36250;48.740;22.174;2022-10-30T08:10:11;101025.13;;;12.58;100.00
50349;BME280;36250;48.740;22.174;2022-10-30T08:12:37;101023.47;;;12.57;100.00
50349;BME280;36250;48.740;22.174;2022-10-30T08:15:05;101021.28;;;12.61;100.00
50349;BME280;36250;48.740;22.174;2022-10-30T08:17:30;101026.88;;;12.66;100.00
50349;BME280;36250;48.740;22.174;2022-10-30T08:19:55;101029.81;;;12.71;100.00
50349;BME280;36250;48.740;22.174;2022-10-30T08:22:21;101019.28;;;12.78;100.00
50349;BME280;36250;48.740;22.174;2022-10-30T08:24:46;101018.34;;;12.86;100.00
50349;BME280;36250;48.740;22.174;2022-10-30T08:27:12;101010.28;;;12.79;100.00
50349;BME280;36250;48.740;22.174;2022-10-30T08:29:37;101002.09;;;12.81;100.00
50349;BME280;36250;48.740;22.174;2022-10-30T08:32:03;101016.03;;;12.83;100.00
50349;BME280;36250;48.740;22.174;2022-10-30T08:34:29;101004.59;;;12.82;100.00
50349;BME280;36250;48.740;22.174;2022-10-30T08:36:56;101010.44;;;12.78;100.00
50349;BME280;36250;48.740;22.174;2022-10-30T08:39:22;101010.38;;;12.71;100.00
50349;BME280;36250;48.740;22.174;2022-10-30T08:41:47;101004.50;;;12.75;100.00
50349;BME280;36250;48.740;22.174;2022-10-30T08:44:12;101004.31;;;12.77;100.00
50349;BME280;36250;48.740;22.174;2022-10-30T08:46:38;101007.34;;;12.74;100.00
50349;BME280;36250;48.740;22.174;2022-10-30T08:49:03;101004.75;;;12.81;100.00
50349;BME280;36250;48.740;22.174;2022-10-30T08:51:32;101013.66;;;12.88;100.00
50349;BME280;36250;48.740;22.174;2022-10-30T08:53:58;101014.94;;;12.92;100.00
50349;BME280;36250;48.740;22.174;2022-10-30T08:56:24;101012.72;;;12.96;100.00
50349;BME280;36250;48.740;22.174;2022-10-30T08:58:49;101000.91;;;12.98;100.00
50349;BME280;36250;48.740;22.174;2022-10-30T09:01:15;101002.16;;;13.02;100.00
50349;BME280;36250;48.740;22.174;2022-10-30T09:03:40;100993.69;;;13.14;100.00
50349;BME280;36250;48.740;22.174;2022-10-30T09:06:07;101000.66;;;13.15;100.00
50349;BME280;36250;48.740;22.174;2022-10-30T09:08:32;100992.50;;;13.16;100.00
50349;BME280;36250;48.740;22.174;2022-10-30T09:10:57;101000.28;;;13.18;100.00
50349;BME280;36250;48.740;22.174;2022-10-30T09:13:24;101005.84;;;13.23;100.00
50349;BME280;36250;48.740;22.174;2022-10-30T09:15:49;101007.16;;;13.27;100.00
50349;BME280;36250;48.740;22.174;2022-10-30T09:18:15;101012.53;;;13.34;100.00
50349;BME280;36250;48.740;22.174;2022-10-30T09:20:40;101008.94;;;13.42;100.00
50349;BME280;36250;48.740;22.174;2022-10-30T09:23:06;101014.34;;;13.49;100.00
50349;BME280;36250;48.740;22.174;2022-10-30T09:25:31;101010.22;;;13.46;100.00
50349;BME280;36250;48.740;22.174;2022-10-30T09:27:56;100992.50;;;13.38;100.00
50349;BME280;36250;48.740;22.174;2022-10-30T09:30:22;100989.22;;;13.36;100.00
50349;BME280;36250;48.740;22.174;2022-10-30T09:32:58;100984.00;;;13.43;100.00
50349;BME280;36250;48.740;22.174;2022-10-30T09:35:24;100993.72;;;13.36;100.00
50349;BME280;36250;48.740;22.174;2022-10-30T09:37:50;101001.06;;;13.33;100.00
50349;BME280;36250;48.740;22.174;2022-10-30T09:41:12;100995.94;;;13.32;100.00
50349;BME280;36250;48.740;22.174;2022-10-30T09:48:42;100999.03;;;13.36;100.00
50349;BME280;36250;48.740;22.174;2022-10-30T09:56:30;100995.53;;;13.35;100.00
50349;BME280;36250;48.740;22.174;2022-10-30T09:59:06;100996.94;;;13.31;100.00
50349;BME280;36250;48.740;22.174;2022-10-30T10:02:03;100992.13;;;13.41;100.00
50349;BME280;36250;48.740;22.174;2022-10-30T10:04:47;101000.91;;;13.57;100.00
50349;BME280;36250;48.740;22.174;2022-10-30T10:07:34;101000.47;;;13.53;100.00
50349;BME280;36250;48.740;22.174;2022-10-30T10:10:10;101002.94;;;13.55;100.00
50349;BME280;36250;48.740;22.174;2022-10-30T10:12:43;100994.19;;;13.61;100.00
50349;BME280;36250;48.740;22.174;2022-10-30T10:15:34;100993.66;;;13.72;100.00
50349;BME280;36250;48.740;22.174;2022-10-30T10:18:03;100986.75;;;13.78;100.00
50349;BME280;36250;48.740;22.174;2022-10-30T10:20:36;100983.78;;;13.95;100.00
50349;BME280;36250;48.740;22.174;2022-10-30T10:23:25;100983.50;;;14.11;100.00
50349;BME280;36250;48.740;22.174;2022-10-30T10:25:52;100987.03;;;14.18;100.00
50349;BME280;36250;48.740;22.174;2022-10-30T10:28:47;100998.31;;;14.20;100.00
50349;BME280;36250;48.740;22.174;2022-10-30T10:36:25;100996.28;;;14.23;100.00
50349;BME280;36250;48.740;22.174;2022-10-30T10:39:52;100994.25;;;14.25;100.00
50349;BME280;36250;48.740;22.174;2022-10-30T10:52:36;100985.78;;;14.14;100.00
50349;BME280;36250;48.740;22.174;2022-10-30T10:55:06;100987.38;;;14.09;100.00
50349;BME280;36250;48.740;22.174;2022-10-30T10:57:37;100987.38;;;14.09;100.00
50349;BME280;36250;48.740;22.174;2022-10-30T11:00:13;100990.66;;;14.11;100.00
50349;BME280;36250;48.740;22.174;2022-10-30T11:02:46;100981.03;;;14.10;100.00
50349;BME280;36250;48.740;22.174;2022-10-30T11:05:34;100988.56;;;14.06;100.00
50349;BME280;36250;48.740;22.174;2022-10-30T11:08:14;100978.91;;;13.98;100.00
50349;BME280;36250;48.740;22.174;2022-10-30T11:10:41;100975.81;;;13.95;100.00
50349;BME280;36250;48.740;22.174;2022-10-30T11:13:11;100981.72;;;13.90;100.00
50349;BME280;36250;48.740;22.174;2022-10-30T11:15:59;100966.09;;;13.80;100.00
50349;BME280;36250;48.740;22.174;2022-10-30T11:18:29;100957.78;;;13.68;100.00
50349;BME280;36250;48.740;22.174;2022-10-30T11:21:18;100947.72;;;13.64;100.00
50349;BME280;36250;48.740;22.174;2022-10-30T11:23:46;100949.19;;;13.66;100.00
50349;BME280;36250;48.740;22.174;2022-10-30T11:28:48;100957.25;;;13.80;100.00
50349;BME280;36250;48.740;22.174;2022-10-30T11:31:27;100948.94;;;13.89;100.00
50349;BME280;36250;48.740;22.174;2022-10-30T11:34:12;100951.22;;;13.93;100.00
50349;BME280;36250;48.740;22.174;2022-10-30T11:36:37;100947.75;;;13.99;100.00
50349;BME280;36250;48.740;22.174;2022-10-30T11:39:10;100945.69;;;13.94;100.00
50349;BME280;36250;48.740;22.174;2022-10-30T11:41:36;100938.97;;;13.98;100.00
50349;BME280;36250;48.740;22.174;2022-10-30T11:44:04;100946.34;;;13.96;100.00
50349;BME280;36250;48.740;22.174;2022-10-30T11:46:29;100939.19;;;14.03;100.00
50349;BME280;36250;48.740;22.174;2022-10-30T11:48:56;100927.47;;;13.98;100.00
50349;BME280;36250;48.740;22.174;2022-10-30T11:51:34;100934.16;;;14.15;100.00
50349;BME280;36250;48.740;22.174;2022-10-30T11:54:01;100935.00;;;14.23;100.00
50349;BME280;36250;48.740;22.174;2022-10-30T11:56:28;100929.69;;;14.23;100.00
50349;BME280;36250;48.740;22.174;2022-10-30T11:58:58;100928.88;;;14.29;100.00
50349;BME280;36250;48.740;22.174;2022-10-30T12:01:33;100921.13;;;14.34;100.00
50349;BME280;36250;48.740;22.174;2022-10-30T12:04:21;100918.25;;;14.36;100.00
50349;BME280;36250;48.740;22.174;2022-10-30T12:06:54;100925.63;;;14.33;100.00
50349;BME280;36250;48.740;22.174;2022-10-30T12:09:30;100937.94;;;14.34;100.00
50349;BME280;36250;48.740;22.174;2022-10-30T12:11:56;100936.91;;;14.36;100.00
50349;BME280;36250;48.740;22.174;2022-10-30T12:14:23;100934.22;;;14.29;100.00
50349;BME280;36250;48.740;22.174;2022-10-30T12:16:52;100933.97;;;14.24;100.00
50349;BME280;36250;48.740;22.174;2022-10-30T12:19:20;100936.41;;;14.18;100.00
50349;BME280;36250;48.740;22.174;2022-10-30T12:21:48;100939.03;;;14.12;100.00
50349;BME280;36250;48.740;22.174;2022-10-30T12:24:30;100943.13;;;14.08;100.00
50349;BME280;36250;48.740;22.174;2022-10-30T12:27:00;100943.69;;;14.03;100.00
50349;BME280;36250;48.740;22.174;2022-10-30T12:29:37;100942.97;;;13.87;100.00
50349;BME280;36250;48.740;22.174;2022-10-30T12:32:08;100947.44;;;13.80;100.00
50349;BME280;36250;48.740;22.174;2022-10-30T12:34:48;100937.84;;;13.57;100.00
50349;BME280;36250;48.740;22.174;2022-10-30T12:37:27;100934.31;;;13.50;100.00
50349;BME280;36250;48.740;22.174;2022-10-30T12:40:03;100936.16;;;13.50;100.00
50349;BME280;36250;48.740;22.174;2022-10-30T12:42:34;100937.81;;;13.51;100.00
50349;BME280;36250;48.740;22.174;2022-10-30T12:45:15;100945.19;;;13.55;100.00
50349;BME280;36250;48.740;22.174;2022-10-30T12:47:55;100934.94;;;13.52;100.00
50349;BME280;36250;48.740;22.174;2022-10-30T12:52:55;100930.38;;;13.46;100.00
50349;BME280;36250;48.740;22.174;2022-10-30T12:55:27;100923.66;;;13.50;100.00
50349;BME280;36250;48.740;22.174;2022-10-30T13:00:52;100941.91;;;13.53;100.00
50349;BME280;36250;48.740;22.174;2022-10-30T13:03:25;100935.44;;;13.41;100.00
50349;BME280;36250;48.740;22.174;2022-10-30T13:06:01;100940.94;;;13.39;100.00
50349;BME280;36250;48.740;22.174;2022-10-30T13:08:33;100946.88;;;13.41;100.00
50349;BME280;36250;48.740;22.174;2022-10-30T13:11:06;100945.44;;;13.39;100.00
50349;BME280;36250;48.740;22.174;2022-10-30T13:13:39;100944.56;;;13.31;100.00
50349;BME280;36250;48.740;22.174;2022-10-30T13:16:11;100941.28;;;13.29;100.00
50349;BME280;36250;48.740;22.174;2022-10-30T13:18:38;100946.78;;;13.28;100.00
50349;BME280;36250;48.740;22.174;2022-10-30T13:23:50;100945.38;;;13.32;100.00
50349;BME280;36250;48.740;22.174;2022-10-30T13:31:54;100953.66;;;13.22;100.00
50349;BME280;36250;48.740;22.174;2022-10-30T13:37:40;100941.97;;;13.16;100.00
50349;BME280;36250;48.740;22.174;2022-10-30T13:42:38;100944.81;;;13.15;100.00
50349;BME280;36250;48.740;22.174;2022-10-30T13:45:45;100943.09;;;13.07;100.00
50349;BME280;36250;48.740;22.174;2022-10-30T13:53:25;100933.34;;;13.14;100.00
50349;BME280;36250;48.740;22.174;2022-10-30T13:55:54;100932.13;;;13.17;100.00